sensor_id;sensor_type;location;lat;lon;timestamp;P1;durP1;ratioP1;P2;durP2;ratioP2
9906;SDS011;4992;51.628;6.664;2023-03-14T00:01:18;6.10;;;1.60;;
9906;SDS011;4992;51.628;6.664;2023-03-14T00:03:48;8.70;;;1.50;;
9906;SDS011;4992;51.628;6.664;2023-03-14T00:06:14;6.15;;;1.25;;
9906;SDS011;4992;51.628;6.664;2023-03-14T00:08:41;5.03;;;1.42;;
9906;SDS011;4992;51.628;6.664;2023-03-14T00:11:08;6.03;;;1.23;;
9906;SDS011;4992;51.628;6.664;2023-03-14T00:13:40;6.55;;;1.58;;
9906;SDS011;4992;51.628;6.664;2023-03-14T00:16:12;3.30;;;1.05;;
9906;SDS011;4992;51.628;6.664;2023-03-14T00:18:38;4.13;;;1.35;;
9906;SDS011;4992;51.628;6.664;2023-03-14T00:21:05;3.92;;;1.30;;
9906;SDS011;4992;51.628;6.664;2023-03-14T00:23:33;5.97;;;1.33;;
9906;SDS011;4992;51.628;6.664;2023-03-14T00:26:00;3.70;;;1.48;;
9906;SDS011;4992;51.628;6.664;2023-03-14T00:28:27;3.55;;;1.10;;
9906;SDS011;4992;51.628;6.664;2023-03-14T00:30:53;3.08;;;1.40;;
9906;SDS011;4992;51.628;6.664;2023-03-14T00:33:19;3.45;;;1.10;;
9906;SDS011;4992;51.628;6.664;2023-03-14T00:35:55;3.33;;;1.30;;
9906;SDS011;4992;51.628;6.664;2023-03-14T00:38:23;4.72;;;1.23;;
9906;SDS011;4992;51.628;6.664;2023-03-14T00:40:50;5.25;;;1.30;;
9906;SDS011;4992;51.628;6.664;2023-03-14T00:43:16;4.28;;;1.48;;
9906;SDS011;4992;51.628;6.664;2023-03-14T00:45:42;6.35;;;1.30;;
9906;SDS011;4992;51.628;6.664;2023-03-14T00:48:08;6.57;;;1.30;;
9906;SDS011;4992;51.628;6.664;2023-03-14T00:50:34;2.38;;;1.15;;
9906;SDS011;4992;51.628;6.664;2023-03-14T00:52:59;5.78;;;1.75;;
9906;SDS011;4992;51.628;6.664;2023-03-14T00:55:25;5.82;;;1.77;;
9906;SDS011;4992;51.628;6.664;2023-03-14T00:57:50;7.50;;;1.60;;
9906;SDS011;4992;51.628;6.664;2023-03-14T01:00:16;3.70;;;1.27;;
9906;SDS011;4992;51.628;6.664;2023-03-14T01:02:42;4.45;;;1.40;;
9906;SDS011;4992;51.628;6.664;2023-03-14T01:05:08;4.22;;;1.27;;
9906;SDS011;4992;51.628;6.664;2023-03-14T01:07:35;6.38;;;1.20;;
9906;SDS011;4992;51.628;6.664;2023-03-14T01:10:01;4.68;;;1.27;;
9906;SDS011;4992;51.628;6.664;2023-03-14T01:12:28;4.10;;;2.08;;
9906;SDS011;4992;51.628;6.664;2023-03-14T01:14:53;4.35;;;1.10;;
9906;SDS011;4992;51.628;6.664;2023-03-14T01:17:19;4.70;;;1.30;;
9906;SDS011;4992;51.628;6.664;2023-03-14T01:19:44;3.67;;;1.40;;
9906;SDS011;4992;51.628;6.664;2023-03-14T01:22:10;7.93;;;1.52;;
9906;SDS011;4992;51.628;6.664;2023-03-14T01:24:36;3.90;;;1.05;;
9906;SDS011;4992;51.628;6.664;2023-03-14T01:27:02;4.45;;;1.00;;
9906;SDS011;4992;51.628;6.664;2023-03-14T01:29:27;3.40;;;0.95;;
9906;SDS011;4992;51.628;6.664;2023-03-14T01:31:53;3.72;;;1.00;;
9906;SDS011;4992;51.628;6.664;2023-03-14T01:34:19;5.22;;;1.33;;
9906;SDS011;4992;51.628;6.664;2023-03-14T01:36:44;4.70;;;1.02;;
9906;SDS011;4992;51.628;6.664;2023-03-14T01:39:10;5.45;;;1.23;;
9906;SDS011;4992;51.628;6.664;2023-03-14T01:41:36;2.60;;;0.80;;
9906;SDS011;4992;51.628;6.664;2023-03-14T01:44:01;7.75;;;1.77;;
9906;SDS011;4992;51.628;6.664;2023-03-14T01:54:12;3.72;;;0.95;;
9906;SDS011;4992;51.628;6.664;2023-03-14T01:57:44;4.35;;;0.88;;
9906;SDS011;4992;51.628;6.664;2023-03-14T01:59:59;3.92;;;1.33;;
9906;SDS011;4992;51.628;6.664;2023-03-14T02:02:30;3.92;;;1.05;;
9906;SDS011;4992;51.628;6.664;2023-03-14T02:04:56;5.90;;;1.25;;
9906;SDS011;4992;51.628;6.664;2023-03-14T02:07:32;3.20;;;0.90;;
9906;SDS011;4992;51.628;6.664;2023-03-14T02:10:02;5.70;;;1.00;;
9906;SDS011;4992;51.628;6.664;2023-03-14T02:12:29;4.75;;;0.95;;
9906;SDS011;4992;51.628;6.664;2023-03-14T02:14:55;2.28;;;0.80;;
9906;SDS011;4992;51.628;6.664;2023-03-14T02:17:20;4.88;;;0.93;;
9906;SDS011;4992;51.628;6.664;2023-03-14T02:20:10;3.90;;;0.85;;
9906;SDS011;4992;51.628;6.664;2023-03-14T02:23:01;5.22;;;1.08;;
9906;SDS011;4992;51.628;6.664;2023-03-14T02:25:42;3.10;;;0.90;;
9906;SDS011;4992;51.628;6.664;2023-03-14T02:28:16;2.23;;;0.57;;
9906;SDS011;4992;51.628;6.664;2023-03-14T02:30:42;4.20;;;0.90;;
9906;SDS011;4992;51.628;6.664;2023-03-14T02:33:15;2.33;;;0.70;;
9906;SDS011;4992;51.628;6.664;2023-03-14T02:35:44;3.67;;;0.80;;
9906;SDS011;4992;51.628;6.664;2023-03-14T02:38:19;2.97;;;0.53;;
9906;SDS011;4992;51.628;6.664;2023-03-14T02:40:46;3.60;;;0.80;;
9906;SDS011;4992;51.628;6.664;2023-03-14T02:43:11;3.53;;;0.90;;
9906;SDS011;4992;51.628;6.664;2023-03-14T02:45:39;4.70;;;0.75;;
9906;SDS011;4992;51.628;6.664;2023-03-14T02:50:56;3.87;;;0.83;;
9906;SDS011;4992;51.628;6.664;2023-03-14T02:53:26;4.27;;;0.90;;
9906;SDS011;4992;51.628;6.664;2023-03-14T02:55:54;3.58;;;0.80;;
9906;SDS011;4992;51.628;6.664;2023-03-14T02:58:20;4.27;;;0.80;;
9906;SDS011;4992;51.628;6.664;2023-03-14T03:00:46;5.07;;;0.90;;
9906;SDS011;4992;51.628;6.664;2023-03-14T03:03:12;2.30;;;0.80;;
9906;SDS011;4992;51.628;6.664;2023-03-14T03:05:37;3.33;;;0.90;;
9906;SDS011;4992;51.628;6.664;2023-03-14T03:08:03;4.90;;;0.93;;
9906;SDS011;4992;51.628;6.664;2023-03-14T03:10:30;5.53;;;0.90;;
9906;SDS011;4992;51.628;6.664;2023-03-14T03:12:56;3.63;;;0.90;;
9906;SDS011;4992;51.628;6.664;2023-03-14T03:15:22;1.73;;;0.70;;
9906;SDS011;4992;51.628;6.664;2023-03-14T03:17:47;4.27;;;1.33;;
9906;SDS011;4992;51.628;6.664;2023-03-14T03:20:13;4.10;;;0.93;;
9906;SDS011;4992;51.628;6.664;2023-03-14T03:22:39;4.90;;;1.27;;
9906;SDS011;4992;51.628;6.664;2023-03-14T03:25:05;6.50;;;1.17;;
9906;SDS011;4992;51.628;6.664;2023-03-14T03:27:32;5.37;;;1.40;;
9906;SDS011;4992;51.628;6.664;2023-03-14T03:30:00;6.20;;;1.37;;
9906;SDS011;4992;51.628;6.664;2023-03-14T03:32:26;4.00;;;0.90;;
9906;SDS011;4992;51.628;6.664;2023-03-14T03:34:52;5.13;;;1.20;;
9906;SDS011;4992;51.628;6.664;2023-03-14T03:37:18;4.20;;;1.07;;
9906;SDS011;4992;51.628;6.664;2023-03-14T03:39:44;5.47;;;1.30;;
9906;SDS011;4992;51.628;6.664;2023-03-14T03:42:10;4.77;;;1.23;;
9906;SDS011;4992;51.628;6.664;2023-03-14T03:44:35;6.60;;;1.50;;
9906;SDS011;4992;51.628;6.664;2023-03-14T03:47:02;4.60;;;1.43;;
9906;SDS011;4992;51.628;6.664;2023-03-14T03:49:31;4.57;;;1.13;;
9906;SDS011;4992;51.628;6.664;2023-03-14T03:51:57;6.90;;;1.67;;
9906;SDS011;4992;51.628;6.664;2023-03-14T03:54:23;5.87;;;1.23;;
9906;SDS011;4992;51.628;6.664;2023-03-14T03:56:48;5.60;;;0.97;;
9906;SDS011;4992;51.628;6.664;2023-03-14T03:59:14;5.83;;;1.10;;
9906;SDS011;4992;51.628;6.664;2023-03-14T04:01:40;4.67;;;0.87;;
9906;SDS011;4992;51.628;6.664;2023-03-14T04:04:05;5.07;;;1.00;;
9906;SDS011;4992;51.628;6.664;2023-03-14T04:06:31;7.37;;;1.00;;
9906;SDS011;4992;51.628;6.664;2023-03-14T04:08:57;7.03;;;1.03;;
9906;SDS011;4992;51.628;6.664;2023-03-14T04:11:22;5.10;;;1.00;;
9906;SDS011;4992;51.628;6.664;2023-03-14T04:13:48;5.17;;;1.10;;
9906;SDS011;4992;51.628;6.664;2023-03-14T04:16:15;2.37;;;0.80;;
9906;SDS011;4992;51.628;6.664;2023-03-14T04:18:42;7.03;;;1.30;;
9906;SDS011;4992;51.628;6.664;2023-03-14T04:21:08;4.67;;;1.23;;
9906;SDS011;4992;51.628;6.664;2023-03-14T04:23:34;5.63;;;1.40;;
9906;SDS011;4992;51.628;6.664;2023-03-14T04:25:59;2.90;;;1.13;;
9906;SDS011;4992;51.628;6.664;2023-03-14T04:28:25;5.53;;;1.10;;
9906;SDS011;4992;51.628;6.664;2023-03-14T04:30:50;7.13;;;0.95;;
9906;SDS011;4992;51.628;6.664;2023-03-14T04:33:16;5.83;;;1.13;;
9906;SDS011;4992;51.628;6.664;2023-03-14T04:35:42;3.40;;;0.93;;
9906;SDS011;4992;51.628;6.664;2023-03-14T04:38:08;6.07;;;1.20;;
9906;SDS011;4992;51.628;6.664;2023-03-14T04:40:36;6.60;;;1.10;;
9906;SDS011;4992;51.628;6.664;2023-03-14T04:43:05;4.57;;;1.00;;
9906;SDS011;4992;51.628;6.664;2023-03-14T04:45:32;4.30;;;0.80;;
9906;SDS011;4992;51.628;6.664;2023-03-14T04:47:58;7.23;;;0.90;;
9906;SDS011;4992;51.628;6.664;2023-03-14T04:50:23;4.83;;;1.00;;
9906;SDS011;4992;51.628;6.664;2023-03-14T04:52:49;2.63;;;0.80;;
9906;SDS011;4992;51.628;6.664;2023-03-14T04:55:14;6.07;;;1.30;;
9906;SDS011;4992;51.628;6.664;2023-03-14T04:57:40;3.23;;;0.97;;
9906;SDS011;4992;51.628;6.664;2023-03-14T05:00:06;3.30;;;0.70;;
9906;SDS011;4992;51.628;6.664;2023-03-14T05:02:32;3.37;;;1.07;;
9906;SDS011;4992;51.628;6.664;2023-03-14T05:04:58;2.63;;;0.67;;
9906;SDS011;4992;51.628;6.664;2023-03-14T05:07:24;3.93;;;0.70;;
9906;SDS011;4992;51.628;6.664;2023-03-14T05:09:50;3.63;;;0.63;;
9906;SDS011;4992;51.628;6.664;2023-03-14T05:12:15;3.27;;;0.67;;
9906;SDS011;4992;51.628;6.664;2023-03-14T05:14:41;2.70;;;0.70;;
9906;SDS011;4992;51.628;6.664;2023-03-14T05:17:06;3.13;;;0.73;;
9906;SDS011;4992;51.628;6.664;2023-03-14T05:19:32;3.67;;;0.80;;
9906;SDS011;4992;51.628;6.664;2023-03-14T05:21:58;4.87;;;0.63;;
9906;SDS011;4992;51.628;6.664;2023-03-14T05:24:23;6.67;;;0.77;;
9906;SDS011;4992;51.628;6.664;2023-03-14T05:26:49;2.77;;;0.60;;
9906;SDS011;4992;51.628;6.664;2023-03-14T05:29:14;2.97;;;0.70;;
9906;SDS011;4992;51.628;6.664;2023-03-14T05:31:40;1.90;;;0.80;;
9906;SDS011;4992;51.628;6.664;2023-03-14T05:34:05;2.47;;;0.70;;
9906;SDS011;4992;51.628;6.664;2023-03-14T05:36:31;1.87;;;0.70;;
9906;SDS011;4992;51.628;6.664;2023-03-14T05:38:56;1.73;;;0.60;;
9906;SDS011;4992;51.628;6.664;2023-03-14T05:41:22;2.63;;;0.50;;
9906;SDS011;4992;51.628;6.664;2023-03-14T05:43:48;1.47;;;0.40;;
9906;SDS011;4992;51.628;6.664;2023-03-14T05:46:13;3.97;;;0.43;;
9906;SDS011;4992;51.628;6.664;2023-03-14T05:48:39;1.13;;;0.50;;
9906;SDS011;4992;51.628;6.664;2023-03-14T05:51:04;3.90;;;0.60;;
9906;SDS011;4992;51.628;6.664;2023-03-14T05:53:30;2.83;;;0.50;;
9906;SDS011;4992;51.628;6.664;2023-03-14T05:55:56;2.90;;;0.60;;
9906;SDS011;4992;51.628;6.664;2023-03-14T05:58:22;2.50;;;0.70;;
9906;SDS011;4992;51.628;6.664;2023-03-14T06:00:48;2.63;;;0.70;;
9906;SDS011;4992;51.628;6.664;2023-03-14T06:03:14;4.13;;;0.60;;
9906;SDS011;4992;51.628;6.664;2023-03-14T06:05:40;1.80;;;0.47;;
9906;SDS011;4992;51.628;6.664;2023-03-14T06:08:05;3.63;;;0.73;;
9906;SDS011;4992;51.628;6.664;2023-03-14T06:10:31;1.43;;;0.60;;
9906;SDS011;4992;51.628;6.664;2023-03-14T06:12:57;2.53;;;0.80;;
9906;SDS011;4992;51.628;6.664;2023-03-14T06:15:23;2.57;;;0.90;;
9906;SDS011;4992;51.628;6.664;2023-03-14T06:17:48;1.00;;;0.90;;
9906;SDS011;4992;51.628;6.664;2023-03-14T06:20:14;2.53;;;1.30;;
9906;SDS011;4992;51.628;6.664;2023-03-14T06:22:40;1.27;;;1.00;;
9906;SDS011;4992;51.628;6.664;2023-03-14T06:25:07;2.47;;;0.97;;
9906;SDS011;4992;51.628;6.664;2023-03-14T06:27:33;3.53;;;1.40;;
9906;SDS011;4992;51.628;6.664;2023-03-14T06:29:59;3.33;;;1.50;;
9906;SDS011;4992;51.628;6.664;2023-03-14T06:32:24;6.90;;;1.83;;
9906;SDS011;4992;51.628;6.664;2023-03-14T06:34:50;3.17;;;1.40;;
9906;SDS011;4992;51.628;6.664;2023-03-14T06:37:16;1.80;;;1.60;;
9906;SDS011;4992;51.628;6.664;2023-03-14T06:39:41;3.03;;;1.63;;
9906;SDS011;4992;51.628;6.664;2023-03-14T06:42:08;4.70;;;2.47;;
9906;SDS011;4992;51.628;6.664;2023-03-14T06:44:34;1.50;;;1.40;;
9906;SDS011;4992;51.628;6.664;2023-03-14T06:47:00;4.27;;;1.80;;
9906;SDS011;4992;51.628;6.664;2023-03-14T06:49:26;2.27;;;1.50;;
9906;SDS011;4992;51.628;6.664;2023-03-14T06:51:51;2.47;;;1.60;;
9906;SDS011;4992;51.628;6.664;2023-03-14T06:54:17;4.93;;;2.13;;
9906;SDS011;4992;51.628;6.664;2023-03-14T06:56:42;4.73;;;1.97;;
9906;SDS011;4992;51.628;6.664;2023-03-14T06:59:08;3.40;;;1.80;;
9906;SDS011;4992;51.628;6.664;2023-03-14T07:01:34;2.63;;;1.70;;
9906;SDS011;4992;51.628;6.664;2023-03-14T07:04:02;2.37;;;1.97;;
9906;SDS011;4992;51.628;6.664;2023-03-14T07:06:28;2.47;;;1.93;;
9906;SDS011;4992;51.628;6.664;2023-03-14T07:08:54;5.03;;;2.70;;
9906;SDS011;4992;51.628;6.664;2023-03-14T07:11:20;4.27;;;2.67;;
9906;SDS011;4992;51.628;6.664;2023-03-14T07:13:46;4.17;;;2.77;;
9906;SDS011;4992;51.628;6.664;2023-03-14T07:16:12;3.63;;;2.87;;
9906;SDS011;4992;51.628;6.664;2023-03-14T07:18:38;3.53;;;2.93;;
9906;SDS011;4992;51.628;6.664;2023-03-14T07:21:04;5.50;;;2.90;;
9906;SDS011;4992;51.628;6.664;2023-03-14T07:23:37;4.20;;;2.33;;
9906;SDS011;4992;51.628;6.664;2023-03-14T07:26:03;3.27;;;2.30;;
9906;SDS011;4992;51.628;6.664;2023-03-14T07:28:29;2.27;;;1.93;;
9906;SDS011;4992;51.628;6.664;2023-03-14T07:30:54;4.73;;;3.33;;
9906;SDS011;4992;51.628;6.664;2023-03-14T07:33:20;5.40;;;3.20;;
9906;SDS011;4992;51.628;6.664;2023-03-14T07:35:46;3.73;;;3.43;;
9906;SDS011;4992;51.628;6.664;2023-03-14T07:38:13;4.03;;;3.63;;
9906;SDS011;4992;51.628;6.664;2023-03-14T07:40:39;4.37;;;3.77;;
9906;SDS011;4992;51.628;6.664;2023-03-14T07:43:05;6.47;;;4.20;;
9906;SDS011;4992;51.628;6.664;2023-03-14T07:45:31;4.63;;;3.77;;
9906;SDS011;4992;51.628;6.664;2023-03-14T07:47:56;4.47;;;3.33;;
9906;SDS011;4992;51.628;6.664;2023-03-14T07:50:23;5.97;;;3.40;;
9906;SDS011;4992;51.628;6.664;2023-03-14T07:52:52;3.77;;;2.90;;
9906;SDS011;4992;51.628;6.664;2023-03-14T07:55:18;3.65;;;3.10;;
9906;SDS011;4992;51.628;6.664;2023-03-14T07:57:43;2.58;;;2.35;;
9906;SDS011;4992;51.628;6.664;2023-03-14T08:00:09;3.97;;;2.40;;
9906;SDS011;4992;51.628;6.664;2023-03-14T08:02:36;3.70;;;1.73;;
9906;SDS011;4992;51.628;6.664;2023-03-14T08:05:02;2.27;;;1.70;;
9906;SDS011;4992;51.628;6.664;2023-03-14T08:07:28;3.38;;;1.48;;
9906;SDS011;4992;51.628;6.664;2023-03-14T08:09:54;1.53;;;1.43;;
9906;SDS011;4992;51.628;6.664;2023-03-14T08:12:20;1.60;;;1.50;;
9906;SDS011;4992;51.628;6.664;2023-03-14T08:14:46;1.30;;;1.20;;
9906;SDS011;4992;51.628;6.664;2023-03-14T08:17:11;2.00;;;1.48;;
9906;SDS011;4992;51.628;6.664;2023-03-14T08:19:37;1.52;;;1.42;;
9906;SDS011;4992;51.628;6.664;2023-03-14T08:22:03;2.13;;;1.60;;
9906;SDS011;4992;51.628;6.664;2023-03-14T08:24:29;2.28;;;1.25;;
9906;SDS011;4992;51.628;6.664;2023-03-14T08:26:55;2.10;;;1.50;;
9906;SDS011;4992;51.628;6.664;2023-03-14T08:29:20;1.65;;;1.55;;
9906;SDS011;4992;51.628;6.664;2023-03-14T08:31:46;3.70;;;2.78;;
9906;SDS011;4992;51.628;6.664;2023-03-14T08:34:13;2.85;;;1.60;;
9906;SDS011;4992;51.628;6.664;2023-03-14T08:36:40;1.63;;;1.52;;
9906;SDS011;4992;51.628;6.664;2023-03-14T08:39:05;1.63;;;1.35;;
9906;SDS011;4992;51.628;6.664;2023-03-14T08:41:32;2.03;;;1.50;;
9906;SDS011;4992;51.628;6.664;2023-03-14T08:43:58;1.45;;;1.30;;
9906;SDS011;4992;51.628;6.664;2023-03-14T08:46:24;4.50;;;1.38;;
9906;SDS011;4992;51.628;6.664;2023-03-14T08:48:49;2.53;;;1.63;;
9906;SDS011;4992;51.628;6.664;2023-03-14T08:51:15;5.50;;;1.70;;
9906;SDS011;4992;51.628;6.664;2023-03-14T08:53:41;2.42;;;0.80;;
9906;SDS011;4992;51.628;6.664;2023-03-14T08:56:07;1.40;;;0.50;;
9906;SDS011;4992;51.628;6.664;2023-03-14T08:58:34;1.03;;;0.50;;
9906;SDS011;4992;51.628;6.664;2023-03-14T09:01:02;0.32;;;0.32;;
9906;SDS011;4992;51.628;6.664;2023-03-14T09:03:32;1.03;;;0.30;;
9906;SDS011;4992;51.628;6.664;2023-03-14T09:06:01;0.30;;;0.30;;
9906;SDS011;4992;51.628;6.664;2023-03-14T09:08:28;0.87;;;0.30;;
9906;SDS011;4992;51.628;6.664;2023-03-14T09:10:54;0.67;;;0.30;;
9906;SDS011;4992;51.628;6.664;2023-03-14T09:13:20;0.87;;;0.30;;
9906;SDS011;4992;51.628;6.664;2023-03-14T09:15:49;0.90;;;0.27;;
9906;SDS011;4992;51.628;6.664;2023-03-14T09:18:16;0.53;;;0.50;;
9906;SDS011;4992;51.628;6.664;2023-03-14T09:20:41;1.43;;;0.50;;
9906;SDS011;4992;51.628;6.664;2023-03-14T09:23:07;1.27;;;0.40;;
9906;SDS011;4992;51.628;6.664;2023-03-14T09:25:32;1.07;;;0.40;;
9906;SDS011;4992;51.628;6.664;2023-03-14T09:27:58;1.90;;;0.50;;
9906;SDS011;4992;51.628;6.664;2023-03-14T09:30:23;0.53;;;0.40;;
9906;SDS011;4992;51.628;6.664;2023-03-14T09:32:49;1.13;;;0.60;;
9906;SDS011;4992;51.628;6.664;2023-03-14T09:35:15;1.30;;;0.50;;
9906;SDS011;4992;51.628;6.664;2023-03-14T09:37:40;2.20;;;0.60;;
9906;SDS011;4992;51.628;6.664;2023-03-14T09:40:06;1.37;;;0.70;;
9906;SDS011;4992;51.628;6.664;2023-03-14T09:42:37;1.42;;;0.70;;
9906;SDS011;4992;51.628;6.664;2023-03-14T09:45:06;1.23;;;0.60;;
9906;SDS011;4992;51.628;6.664;2023-03-14T09:47:42;1.07;;;0.70;;
9906;SDS011;4992;51.628;6.664;2023-03-14T09:50:18;3.13;;;0.60;;
9906;SDS011;4992;51.628;6.664;2023-03-14T09:53:03;3.13;;;0.70;;
9906;SDS011;4992;51.628;6.664;2023-03-14T09:55:32;0.60;;;0.60;;
9906;SDS011;4992;51.628;6.664;2023-03-14T09:57:59;0.50;;;0.50;;
9906;SDS011;4992;51.628;6.664;2023-03-14T10:00:29;2.33;;;0.60;;
9906;SDS011;4992;51.628;6.664;2023-03-14T10:02:58;0.43;;;0.40;;
9906;SDS011;4992;51.628;6.664;2023-03-14T10:05:41;0.90;;;0.67;;
9906;SDS011;4992;51.628;6.664;2023-03-14T10:08:10;0.80;;;0.80;;
9906;SDS011;4992;51.628;6.664;2023-03-14T10:10:36;1.20;;;0.73;;
9906;SDS011;4992;51.628;6.664;2023-03-14T10:13:18;2.13;;;0.87;;
9906;SDS011;4992;51.628;6.664;2023-03-14T10:16:03;3.23;;;0.60;;
9906;SDS011;4992;51.628;6.664;2023-03-14T10:18:32;3.23;;;0.70;;
9906;SDS011;4992;51.628;6.664;2023-03-14T10:23:32;1.13;;;0.60;;
9906;SDS011;4992;51.628;6.664;2023-03-14T10:26:04;2.10;;;0.40;;
9906;SDS011;4992;51.628;6.664;2023-03-14T10:28:45;2.53;;;0.47;;
9906;SDS011;4992;51.628;6.664;2023-03-14T10:31:13;0.40;;;0.33;;
9906;SDS011;4992;51.628;6.664;2023-03-14T10:33:39;1.37;;;0.33;;
9906;SDS011;4992;51.628;6.664;2023-03-14T10:36:15;0.60;;;0.37;;
9906;SDS011;4992;51.628;6.664;2023-03-14T10:38:40;3.63;;;0.43;;
9906;SDS011;4992;51.628;6.664;2023-03-14T10:41:14;3.90;;;0.60;;
9906;SDS011;4992;51.628;6.664;2023-03-14T10:43:42;2.40;;;0.30;;
9906;SDS011;4992;51.628;6.664;2023-03-14T10:46:09;1.60;;;0.40;;
9906;SDS011;4992;51.628;6.664;2023-03-14T10:48:40;0.40;;;0.40;;
9906;SDS011;4992;51.628;6.664;2023-03-14T10:51:11;4.00;;;1.00;;
9906;SDS011;4992;51.628;6.664;2023-03-14T10:53:44;9.47;;;6.53;;
9906;SDS011;4992;51.628;6.664;2023-03-14T10:56:21;1.70;;;0.60;;
9906;SDS011;4992;51.628;6.664;2023-03-14T10:58:49;4.40;;;0.70;;
9906;SDS011;4992;51.628;6.664;2023-03-14T11:04:18;1.97;;;0.57;;
9906;SDS011;4992;51.628;6.664;2023-03-14T11:12:30;0.87;;;0.37;;
9906;SDS011;4992;51.628;6.664;2023-03-14T11:15:23;2.80;;;0.50;;
9906;SDS011;4992;51.628;6.664;2023-03-14T11:36:39;3.80;;;0.77;;
9906;SDS011;4992;51.628;6.664;2023-03-14T11:39:18;2.77;;;0.57;;
9906;SDS011;4992;51.628;6.664;2023-03-14T11:41:54;2.47;;;1.00;;
9906;SDS011;4992;51.628;6.664;2023-03-14T11:44:30;3.33;;;0.70;;
9906;SDS011;4992;51.628;6.664;2023-03-14T11:52:38;2.00;;;0.73;;
9906;SDS011;4992;51.628;6.664;2023-03-14T11:57:50;1.87;;;0.93;;
9906;SDS011;4992;51.628;6.664;2023-03-14T12:00:19;6.33;;;0.97;;
9906;SDS011;4992;51.628;6.664;2023-03-14T12:08:39;5.30;;;1.00;;
9906;SDS011;4992;51.628;6.664;2023-03-14T12:11:10;5.83;;;1.23;;
9906;SDS011;4992;51.628;6.664;2023-03-14T12:13:54;2.23;;;0.83;;
9906;SDS011;4992;51.628;6.664;2023-03-14T12:18:49;5.90;;;1.30;;
9906;SDS011;4992;51.628;6.664;2023-03-14T12:21:16;6.23;;;1.47;;
9906;SDS011;4992;51.628;6.664;2023-03-14T12:28:44;11.97;;;2.47;;
9906;SDS011;4992;51.628;6.664;2023-03-14T12:47:57;11.57;;;1.53;;
9906;SDS011;4992;51.628;6.664;2023-03-14T12:50:28;13.47;;;2.30;;
9906;SDS011;4992;51.628;6.664;2023-03-14T12:53:07;8.93;;;1.80;;
9906;SDS011;4992;51.628;6.664;2023-03-14T12:59:14;10.73;;;1.83;;
9906;SDS011;4992;51.628;6.664;2023-03-14T13:02:00;12.13;;;2.10;;
9906;SDS011;4992;51.628;6.664;2023-03-14T13:04:35;9.87;;;1.90;;
9906;SDS011;4992;51.628;6.664;2023-03-14T13:12:36;10.07;;;2.10;;
9906;SDS011;4992;51.628;6.664;2023-03-14T13:15:12;11.07;;;3.10;;
9906;SDS011;4992;51.628;6.664;2023-03-14T13:17:51;16.57;;;2.80;;
9906;SDS011;4992;51.628;6.664;2023-03-14T13:20:24;15.03;;;2.00;;
9906;SDS011;4992;51.628;6.664;2023-03-14T13:23:00;13.60;;;2.10;;
9906;SDS011;4992;51.628;6.664;2023-03-14T13:25:29;10.60;;;2.70;;
9906;SDS011;4992;51.628;6.664;2023-03-14T13:27:56;9.90;;;1.93;;
9906;SDS011;4992;51.628;6.664;2023-03-14T13:30:25;10.10;;;1.97;;
9906;SDS011;4992;51.628;6.664;2023-03-14T13:32:52;8.33;;;1.83;;
9906;SDS011;4992;51.628;6.664;2023-03-14T13:38:13;8.53;;;1.97;;
9906;SDS011;4992;51.628;6.664;2023-03-14T13:40:45;9.60;;;2.07;;
9906;SDS011;4992;51.628;6.664;2023-03-14T13:43:21;11.47;;;1.93;;
9906;SDS011;4992;51.628;6.664;2023-03-14T13:45:53;7.05;;;1.27;;
9906;SDS011;4992;51.628;6.664;2023-03-14T13:48:30;4.72;;;1.42;;
9906;SDS011;4992;51.628;6.664;2023-03-14T13:50:59;7.25;;;1.35;;
9906;SDS011;4992;51.628;6.664;2023-03-14T13:53:42;6.88;;;1.40;;
9906;SDS011;4992;51.628;6.664;2023-03-14T13:56:09;4.65;;;1.40;;
9906;SDS011;4992;51.628;6.664;2023-03-14T13:58:36;6.90;;;1.25;;
9906;SDS011;4992;51.628;6.664;2023-03-14T14:03:56;4.97;;;1.23;;
9906;SDS011;4992;51.628;6.664;2023-03-14T14:08:52;5.00;;;1.60;;
9906;SDS011;4992;51.628;6.664;2023-03-14T14:11:39;4.45;;;1.20;;
9906;SDS011;4992;51.628;6.664;2023-03-14T14:14:25;6.05;;;1.23;;
9906;SDS011;4992;51.628;6.664;2023-03-14T14:16:55;7.38;;;1.30;;
9906;SDS011;4992;51.628;6.664;2023-03-14T14:19:23;3.22;;;1.30;;
9906;SDS011;4992;51.628;6.664;2023-03-14T14:21:52;5.32;;;1.30;;
9906;SDS011;4992;51.628;6.664;2023-03-14T14:24:19;6.95;;;1.42;;
9906;SDS011;4992;51.628;6.664;2023-03-14T14:26:52;9.40;;;1.35;;
9906;SDS011;4992;51.628;6.664;2023-03-14T14:29:29;5.35;;;1.55;;
9906;SDS011;4992;51.628;6.664;2023-03-14T14:34:47;6.78;;;1.38;;
9906;SDS011;4992;51.628;6.664;2023-03-14T14:37:27;5.25;;;1.77;;
9906;SDS011;4992;51.628;6.664;2023-03-14T14:39:57;7.15;;;1.63;;
9906;SDS011;4992;51.628;6.664;2023-03-14T14:42:25;6.18;;;1.65;;
9906;SDS011;4992;51.628;6.664;2023-03-14T14:44:56;6.32;;;1.45;;
9906;SDS011;4992;51.628;6.664;2023-03-14T14:47:23;4.55;;;1.30;;
9906;SDS011;4992;51.628;6.664;2023-03-14T14:49:52;5.40;;;1.15;;
9906;SDS011;4992;51.628;6.664;2023-03-14T14:52:20;3.70;;;1.17;;
9906;SDS011;4992;51.628;6.664;2023-03-14T14:54:58;3.30;;;0.90;;
9906;SDS011;4992;51.628;6.664;2023-03-14T14:57:25;4.10;;;1.08;;
9906;SDS011;4992;51.628;6.664;2023-03-14T14:59:56;3.60;;;1.15;;
9906;SDS011;4992;51.628;6.664;2023-03-14T15:02:38;3.42;;;1.05;;
9906;SDS011;4992;51.628;6.664;2023-03-14T15:05:20;5.85;;;1.33;;
9906;SDS011;4992;51.628;6.664;2023-03-14T15:07:50;4.40;;;1.25;;
9906;SDS011;4992;51.628;6.664;2023-03-14T15:10:17;4.45;;;0.80;;
9906;SDS011;4992;51.628;6.664;2023-03-14T15:12:44;4.80;;;1.13;;
9906;SDS011;4992;51.628;6.664;2023-03-14T15:15:10;3.63;;;0.77;;
9906;SDS011;4992;51.628;6.664;2023-03-14T15:17:37;5.25;;;1.05;;
9906;SDS011;4992;51.628;6.664;2023-03-14T15:20:04;4.53;;;1.40;;
9906;SDS011;4992;51.628;6.664;2023-03-14T15:22:30;1.88;;;0.75;;
9906;SDS011;4992;51.628;6.664;2023-03-14T15:24:56;2.53;;;0.70;;
9906;SDS011;4992;51.628;6.664;2023-03-14T15:27:21;3.72;;;0.93;;
9906;SDS011;4992;51.628;6.664;2023-03-14T15:29:48;7.75;;;1.05;;
9906;SDS011;4992;51.628;6.664;2023-03-14T15:32:14;3.78;;;0.70;;
9906;SDS011;4992;51.628;6.664;2023-03-14T15:34:41;2.25;;;0.82;;
9906;SDS011;4992;51.628;6.664;2023-03-14T15:37:11;4.10;;;1.37;;
9906;SDS011;4992;51.628;6.664;2023-03-14T15:39:38;3.37;;;0.93;;
9906;SDS011;4992;51.628;6.664;2023-03-14T15:42:04;3.23;;;0.90;;
9906;SDS011;4992;51.628;6.664;2023-03-14T15:44:30;4.33;;;1.27;;
9906;SDS011;4992;51.628;6.664;2023-03-14T15:46:56;6.13;;;0.80;;
9906;SDS011;4992;51.628;6.664;2023-03-14T15:49:21;2.70;;;1.00;;
9906;SDS011;4992;51.628;6.664;2023-03-14T15:51:47;5.03;;;0.90;;
9906;SDS011;4992;51.628;6.664;2023-03-14T15:54:13;3.93;;;0.90;;
9906;SDS011;4992;51.628;6.664;2023-03-14T15:56:39;3.73;;;1.10;;
9906;SDS011;4992;51.628;6.664;2023-03-14T15:59:05;2.23;;;0.60;;
9906;SDS011;4992;51.628;6.664;2023-03-14T16:01:30;3.53;;;1.23;;
9906;SDS011;4992;51.628;6.664;2023-03-14T16:03:56;7.17;;;1.70;;
9906;SDS011;4992;51.628;6.664;2023-03-14T16:06:22;4.53;;;0.80;;
9906;SDS011;4992;51.628;6.664;2023-03-14T16:08:47;4.20;;;0.93;;
9906;SDS011;4992;51.628;6.664;2023-03-14T16:11:14;4.40;;;0.90;;
9906;SDS011;4992;51.628;6.664;2023-03-14T16:13:42;4.37;;;0.90;;
9906;SDS011;4992;51.628;6.664;2023-03-14T16:16:08;4.27;;;0.83;;
9906;SDS011;4992;51.628;6.664;2023-03-14T16:18:35;7.07;;;1.50;;
9906;SDS011;4992;51.628;6.664;2023-03-14T16:21:04;2.80;;;1.10;;
9906;SDS011;4992;51.628;6.664;2023-03-14T16:23:31;4.50;;;0.90;;
9906;SDS011;4992;51.628;6.664;2023-03-14T16:25:57;4.43;;;0.93;;
9906;SDS011;4992;51.628;6.664;2023-03-14T16:28:23;4.80;;;0.80;;
9906;SDS011;4992;51.628;6.664;2023-03-14T16:30:50;7.33;;;1.30;;
9906;SDS011;4992;51.628;6.664;2023-03-14T16:33:16;5.23;;;1.20;;
9906;SDS011;4992;51.628;6.664;2023-03-14T16:35:52;3.17;;;0.90;;
9906;SDS011;4992;51.628;6.664;2023-03-14T16:38:22;2.63;;;0.90;;
9906;SDS011;4992;51.628;6.664;2023-03-14T16:40:55;3.63;;;0.97;;
9906;SDS011;4992;51.628;6.664;2023-03-14T16:43:25;2.23;;;0.90;;
9906;SDS011;4992;51.628;6.664;2023-03-14T16:45:51;4.93;;;1.50;;
9906;SDS011;4992;51.628;6.664;2023-03-14T16:48:17;4.73;;;1.23;;
9906;SDS011;4992;51.628;6.664;2023-03-14T16:50:44;6.70;;;1.07;;
9906;SDS011;4992;51.628;6.664;2023-03-14T16:53:10;5.13;;;1.07;;
9906;SDS011;4992;51.628;6.664;2023-03-14T16:55:39;5.93;;;0.80;;
9906;SDS011;4992;51.628;6.664;2023-03-14T16:58:06;7.40;;;1.03;;
9906;SDS011;4992;51.628;6.664;2023-03-14T17:00:32;5.60;;;1.00;;